sensor_id;sensor_type;location;lat;lon;timestamp;P1;durP1;ratioP1;P2;durP2;ratioP2
8791;SDS011;4432;50.890;4.744;2022-11-18T00:00:51;3.43;;;1.20;;
8791;SDS011;4432;50.890;4.744;2022-11-18T00:03:17;5.33;;;0.93;;
8791;SDS011;4432;50.890;4.744;2022-11-18T00:05:51;3.10;;;1.30;;
8791;SDS011;4432;50.890;4.744;2022-11-18T00:08:21;2.90;;;1.10;;
8791;SDS011;4432;50.890;4.744;2022-11-18T00:10:48;2.67;;;1.10;;
8791;SDS011;4432;50.890;4.744;2022-11-18T00:13:14;3.80;;;1.33;;
8791;SDS011;4432;50.890;4.744;2022-11-18T00:16:08;1.13;;;1.03;;
8791;SDS011;4432;50.890;4.744;2022-11-18T00:18:36;0.90;;;0.90;;
8791;SDS011;4432;50.890;4.744;2022-11-18T00:21:03;1.27;;;1.07;;
8791;SDS011;4432;50.890;4.744;2022-11-18T00:23:30;1.40;;;1.00;;
8791;SDS011;4432;50.890;4.744;2022-11-18T00:26:00;3.13;;;1.10;;
8791;SDS011;4432;50.890;4.744;2022-11-18T00:28:30;1.90;;;0.93;;
8791;SDS011;4432;50.890;4.744;2022-11-18T00:31:03;2.90;;;1.10;;
8791;SDS011;4432;50.890;4.744;2022-11-18T00:33:30;0.80;;;0.80;;
8791;SDS011;4432;50.890;4.744;2022-11-18T00:35:57;3.23;;;1.07;;
8791;SDS011;4432;50.890;4.744;2022-11-18T00:38:23;1.10;;;1.00;;
8791;SDS011;4432;50.890;4.744;2022-11-18T00:40:57;1.10;;;0.90;;
8791;SDS011;4432;50.890;4.744;2022-11-18T00:43:28;1.37;;;1.10;;
8791;SDS011;4432;50.890;4.744;2022-11-18T00:45:54;1.83;;;1.13;;
8791;SDS011;4432;50.890;4.744;2022-11-18T00:48:20;1.57;;;1.00;;
8791;SDS011;4432;50.890;4.744;2022-11-18T00:50:55;2.03;;;1.03;;
8791;SDS011;4432;50.890;4.744;2022-11-18T00:53:24;1.13;;;1.00;;
8791;SDS011;4432;50.890;4.744;2022-11-18T00:55:51;2.17;;;0.87;;
8791;SDS011;4432;50.890;4.744;2022-11-18T00:58:17;1.37;;;1.00;;
8791;SDS011;4432;50.890;4.744;2022-11-18T01:00:44;0.80;;;0.80;;
8791;SDS011;4432;50.890;4.744;2022-11-18T01:03:12;2.33;;;1.07;;
8791;SDS011;4432;50.890;4.744;2022-11-18T01:05:39;0.90;;;0.90;;
8791;SDS011;4432;50.890;4.744;2022-11-18T01:08:08;1.30;;;1.03;;
8791;SDS011;4432;50.890;4.744;2022-11-18T01:10:35;3.53;;;1.30;;
8791;SDS011;4432;50.890;4.744;2022-11-18T01:13:01;3.67;;;1.10;;
8791;SDS011;4432;50.890;4.744;2022-11-18T01:15:53;4.43;;;0.90;;
8791;SDS011;4432;50.890;4.744;2022-11-18T01:18:23;2.57;;;1.10;;
8791;SDS011;4432;50.890;4.744;2022-11-18T01:20:50;1.10;;;0.80;;
8791;SDS011;4432;50.890;4.744;2022-11-18T01:23:17;1.77;;;1.23;;
8791;SDS011;4432;50.890;4.744;2022-11-18T01:25:45;1.03;;;0.80;;
8791;SDS011;4432;50.890;4.744;2022-11-18T01:28:13;2.43;;;1.07;;
8791;SDS011;4432;50.890;4.744;2022-11-18T01:30:40;2.37;;;1.10;;
8791;SDS011;4432;50.890;4.744;2022-11-18T01:33:06;1.43;;;1.10;;
8791;SDS011;4432;50.890;4.744;2022-11-18T01:35:36;4.40;;;1.13;;
8791;SDS011;4432;50.890;4.744;2022-11-18T01:38:03;5.07;;;1.20;;
8791;SDS011;4432;50.890;4.744;2022-11-18T01:40:29;1.60;;;0.90;;
8791;SDS011;4432;50.890;4.744;2022-11-18T01:42:55;1.47;;;1.20;;
8791;SDS011;4432;50.890;4.744;2022-11-18T01:45:29;0.90;;;0.90;;
8791;SDS011;4432;50.890;4.744;2022-11-18T01:48:11;2.63;;;1.17;;
8791;SDS011;4432;50.890;4.744;2022-11-18T01:50:45;1.47;;;1.30;;
8791;SDS011;4432;50.890;4.744;2022-11-18T01:53:16;2.03;;;1.23;;
8791;SDS011;4432;50.890;4.744;2022-11-18T01:55:46;1.50;;;1.40;;
8791;SDS011;4432;50.890;4.744;2022-11-18T01:58:17;2.17;;;1.10;;
8791;SDS011;4432;50.890;4.744;2022-11-18T02:00:47;1.30;;;1.20;;
8791;SDS011;4432;50.890;4.744;2022-11-18T02:03:14;1.60;;;1.00;;
8791;SDS011;4432;50.890;4.744;2022-11-18T02:05:42;1.93;;;1.10;;
8791;SDS011;4432;50.890;4.744;2022-11-18T02:08:10;2.37;;;1.20;;
8791;SDS011;4432;50.890;4.744;2022-11-18T02:10:37;1.40;;;0.90;;
8791;SDS011;4432;50.890;4.744;2022-11-18T02:13:02;1.80;;;1.27;;
8791;SDS011;4432;50.890;4.744;2022-11-18T02:15:34;1.27;;;1.10;;
8791;SDS011;4432;50.890;4.744;2022-11-18T02:18:07;1.83;;;1.00;;
8791;SDS011;4432;50.890;4.744;2022-11-18T02:20:48;1.30;;;1.20;;
8791;SDS011;4432;50.890;4.744;2022-11-18T02:29:09;1.13;;;1.00;;
8791;SDS011;4432;50.890;4.744;2022-11-18T02:32:20;1.03;;;0.90;;
8791;SDS011;4432;50.890;4.744;2022-11-18T02:37:30;1.33;;;1.07;;
8791;SDS011;4432;50.890;4.744;2022-11-18T02:42:40;1.13;;;0.90;;
8791;SDS011;4432;50.890;4.744;2022-11-18T02:45:10;1.47;;;1.00;;
8791;SDS011;4432;50.890;4.744;2022-11-18T02:47:39;1.37;;;0.90;;
8791;SDS011;4432;50.890;4.744;2022-11-18T02:50:10;2.03;;;0.97;;
8791;SDS011;4432;50.890;4.744;2022-11-18T02:52:39;3.10;;;1.10;;
8791;SDS011;4432;50.890;4.744;2022-11-18T02:55:08;4.90;;;1.40;;
8791;SDS011;4432;50.890;4.744;2022-11-18T02:57:36;1.23;;;1.13;;
8791;SDS011;4432;50.890;4.744;2022-11-18T03:00:04;3.23;;;1.10;;
8791;SDS011;4432;50.890;4.744;2022-11-18T03:02:38;1.20;;;1.10;;
8791;SDS011;4432;50.890;4.744;2022-11-18T03:05:15;0.87;;;0.87;;
8791;SDS011;4432;50.890;4.744;2022-11-18T03:07:55;0.90;;;0.90;;
8791;SDS011;4432;50.890;4.744;2022-11-18T03:10:29;1.63;;;1.13;;
8791;SDS011;4432;50.890;4.744;2022-11-18T03:13:10;0.80;;;0.80;;
8791;SDS011;4432;50.890;4.744;2022-11-18T03:16:05;1.07;;;0.97;;
8791;SDS011;4432;50.890;4.744;2022-11-18T03:18:49;1.67;;;1.20;;
8791;SDS011;4432;50.890;4.744;2022-11-18T03:21:30;2.40;;;1.17;;
8791;SDS011;4432;50.890;4.744;2022-11-18T03:26:49;1.53;;;0.87;;
8791;SDS011;4432;50.890;4.744;2022-11-18T03:29:22;1.33;;;1.10;;
8791;SDS011;4432;50.890;4.744;2022-11-18T03:31:57;3.60;;;1.07;;
8791;SDS011;4432;50.890;4.744;2022-11-18T03:34:34;1.80;;;1.20;;
8791;SDS011;4432;50.890;4.744;2022-11-18T03:37:04;1.97;;;1.30;;
8791;SDS011;4432;50.890;4.744;2022-11-18T03:39:34;2.07;;;1.30;;
8791;SDS011;4432;50.890;4.744;2022-11-18T03:42:08;4.10;;;1.27;;
8791;SDS011;4432;50.890;4.744;2022-11-18T03:44:39;0.90;;;0.90;;
8791;SDS011;4432;50.890;4.744;2022-11-18T03:47:09;4.03;;;1.47;;
8791;SDS011;4432;50.890;4.744;2022-11-18T03:49:42;1.00;;;1.00;;
8791;SDS011;4432;50.890;4.744;2022-11-18T03:52:17;1.10;;;1.00;;
8791;SDS011;4432;50.890;4.744;2022-11-18T03:54:46;1.40;;;1.23;;
8791;SDS011;4432;50.890;4.744;2022-11-18T03:57:17;3.73;;;1.50;;
8791;SDS011;4432;50.890;4.744;2022-11-18T03:59:56;2.43;;;1.50;;
8791;SDS011;4432;50.890;4.744;2022-11-18T04:02:30;1.60;;;1.50;;
8791;SDS011;4432;50.890;4.744;2022-11-18T04:04:56;1.90;;;1.10;;
8791;SDS011;4432;50.890;4.744;2022-11-18T04:10:28;2.60;;;1.20;;
8791;SDS011;4432;50.890;4.744;2022-11-18T04:15:31;3.87;;;1.30;;
8791;SDS011;4432;50.890;4.744;2022-11-18T04:18:00;1.70;;;1.17;;
8791;SDS011;4432;50.890;4.744;2022-11-18T04:20:26;1.20;;;0.87;;
8791;SDS011;4432;50.890;4.744;2022-11-18T04:22:52;1.03;;;0.97;;
8791;SDS011;4432;50.890;4.744;2022-11-18T04:25:18;2.67;;;1.67;;
8791;SDS011;4432;50.890;4.744;2022-11-18T04:27:44;2.77;;;1.50;;
8791;SDS011;4432;50.890;4.744;2022-11-18T04:30:10;2.57;;;1.50;;
8791;SDS011;4432;50.890;4.744;2022-11-18T04:32:36;4.10;;;1.50;;
8791;SDS011;4432;50.890;4.744;2022-11-18T04:35:02;1.40;;;1.30;;
8791;SDS011;4432;50.890;4.744;2022-11-18T04:37:28;7.87;;;1.67;;
8791;SDS011;4432;50.890;4.744;2022-11-18T04:39:53;1.10;;;1.00;;
8791;SDS011;4432;50.890;4.744;2022-11-18T04:42:19;3.17;;;1.40;;
8791;SDS011;4432;50.890;4.744;2022-11-18T04:44:45;1.20;;;1.20;;
8791;SDS011;4432;50.890;4.744;2022-11-18T04:47:11;5.30;;;1.47;;
8791;SDS011;4432;50.890;4.744;2022-11-18T04:49:36;2.10;;;1.30;;
8791;SDS011;4432;50.890;4.744;2022-11-18T04:52:02;4.97;;;1.50;;
8791;SDS011;4432;50.890;4.744;2022-11-18T04:54:28;5.50;;;1.23;;
8791;SDS011;4432;50.890;4.744;2022-11-18T04:56:54;1.30;;;1.20;;
8791;SDS011;4432;50.890;4.744;2022-11-18T04:59:22;2.23;;;1.40;;
8791;SDS011;4432;50.890;4.744;2022-11-18T05:01:50;3.77;;;1.20;;
8791;SDS011;4432;50.890;4.744;2022-11-18T05:04:18;1.43;;;1.33;;
8791;SDS011;4432;50.890;4.744;2022-11-18T05:06:45;1.53;;;1.33;;
8791;SDS011;4432;50.890;4.744;2022-11-18T05:09:12;3.63;;;1.40;;
8791;SDS011;4432;50.890;4.744;2022-11-18T05:11:38;5.23;;;1.70;;
8791;SDS011;4432;50.890;4.744;2022-11-18T05:14:26;1.57;;;1.30;;
8791;SDS011;4432;50.890;4.744;2022-11-18T05:16:53;2.13;;;1.30;;
8791;SDS011;4432;50.890;4.744;2022-11-18T05:19:19;5.20;;;1.53;;
8791;SDS011;4432;50.890;4.744;2022-11-18T05:21:45;1.50;;;1.40;;
8791;SDS011;4432;50.890;4.744;2022-11-18T05:24:10;1.90;;;1.47;;
8791;SDS011;4432;50.890;4.744;2022-11-18T05:26:36;2.50;;;0.93;;
8791;SDS011;4432;50.890;4.744;2022-11-18T05:29:02;4.13;;;1.23;;
8791;SDS011;4432;50.890;4.744;2022-11-18T05:31:28;2.57;;;1.23;;
8791;SDS011;4432;50.890;4.744;2022-11-18T05:33:54;1.80;;;1.60;;
8791;SDS011;4432;50.890;4.744;2022-11-18T05:36:20;3.70;;;1.53;;
8791;SDS011;4432;50.890;4.744;2022-11-18T05:38:46;4.23;;;1.80;;
8791;SDS011;4432;50.890;4.744;2022-11-18T05:41:13;3.80;;;1.43;;
8791;SDS011;4432;50.890;4.744;2022-11-18T05:43:59;3.80;;;1.30;;
8791;SDS011;4432;50.890;4.744;2022-11-18T05:46:26;1.97;;;1.30;;
8791;SDS011;4432;50.890;4.744;2022-11-18T05:48:52;1.20;;;1.20;;
8791;SDS011;4432;50.890;4.744;2022-11-18T05:51:19;3.73;;;1.60;;
8791;SDS011;4432;50.890;4.744;2022-11-18T05:53:44;5.00;;;1.40;;
8791;SDS011;4432;50.890;4.744;2022-11-18T05:58:43;1.70;;;1.57;;
8791;SDS011;4432;50.890;4.744;2022-11-18T06:01:09;1.40;;;1.30;;
8791;SDS011;4432;50.890;4.744;2022-11-18T06:03:36;3.20;;;1.77;;
8791;SDS011;4432;50.890;4.744;2022-11-18T06:06:04;1.60;;;1.50;;
8791;SDS011;4432;50.890;4.744;2022-11-18T06:08:34;3.80;;;1.50;;
8791;SDS011;4432;50.890;4.744;2022-11-18T06:11:03;1.17;;;1.17;;
8791;SDS011;4432;50.890;4.744;2022-11-18T06:13:31;1.37;;;1.10;;
8791;SDS011;4432;50.890;4.744;2022-11-18T06:16:01;2.03;;;1.60;;
8791;SDS011;4432;50.890;4.744;2022-11-18T06:18:28;1.87;;;1.57;;
8791;SDS011;4432;50.890;4.744;2022-11-18T06:20:56;8.87;;;1.47;;
8791;SDS011;4432;50.890;4.744;2022-11-18T06:23:26;4.20;;;1.43;;
8791;SDS011;4432;50.890;4.744;2022-11-18T06:25:53;6.77;;;1.30;;
8791;SDS011;4432;50.890;4.744;2022-11-18T06:28:20;4.77;;;1.30;;
8791;SDS011;4432;50.890;4.744;2022-11-18T06:30:46;5.03;;;1.60;;
8791;SDS011;4432;50.890;4.744;2022-11-18T06:33:12;1.57;;;1.30;;
8791;SDS011;4432;50.890;4.744;2022-11-18T06:35:38;14.60;;;2.00;;
8791;SDS011;4432;50.890;4.744;2022-11-18T06:38:03;2.20;;;1.70;;
8791;SDS011;4432;50.890;4.744;2022-11-18T06:40:29;2.43;;;1.60;;
8791;SDS011;4432;50.890;4.744;2022-11-18T06:42:55;1.50;;;1.40;;
8791;SDS011;4432;50.890;4.744;2022-11-18T06:45:39;6.23;;;1.90;;
8791;SDS011;4432;50.890;4.744;2022-11-18T06:48:25;3.90;;;1.93;;
8791;SDS011;4432;50.890;4.744;2022-11-18T06:50:50;10.33;;;1.50;;
8791;SDS011;4432;50.890;4.744;2022-11-18T06:53:16;2.93;;;1.70;;
8791;SDS011;4432;50.890;4.744;2022-11-18T06:55:42;1.50;;;1.40;;
8791;SDS011;4432;50.890;4.744;2022-11-18T06:58:08;2.03;;;1.00;;
8791;SDS011;4432;50.890;4.744;2022-11-18T07:00:34;1.80;;;1.37;;
8791;SDS011;4432;50.890;4.744;2022-11-18T07:03:01;1.53;;;1.30;;
8791;SDS011;4432;50.890;4.744;2022-11-18T07:05:26;1.60;;;1.30;;
8791;SDS011;4432;50.890;4.744;2022-11-18T07:07:52;2.70;;;1.50;;
8791;SDS011;4432;50.890;4.744;2022-11-18T07:10:18;1.43;;;1.33;;
8791;SDS011;4432;50.890;4.744;2022-11-18T07:12:44;1.50;;;1.40;;
8791;SDS011;4432;50.890;4.744;2022-11-18T07:15:09;3.80;;;1.47;;
8791;SDS011;4432;50.890;4.744;2022-11-18T07:17:35;2.70;;;1.43;;
8791;SDS011;4432;50.890;4.744;2022-11-18T07:20:01;3.50;;;1.37;;
8791;SDS011;4432;50.890;4.744;2022-11-18T07:22:27;1.80;;;1.07;;
8791;SDS011;4432;50.890;4.744;2022-11-18T07:24:52;4.37;;;1.30;;
8791;SDS011;4432;50.890;4.744;2022-11-18T07:27:18;3.53;;;1.20;;
8791;SDS011;4432;50.890;4.744;2022-11-18T07:29:44;1.40;;;1.30;;
8791;SDS011;4432;50.890;4.744;2022-11-18T07:32:09;4.63;;;1.83;;
8791;SDS011;4432;50.890;4.744;2022-11-18T07:34:35;2.40;;;1.40;;
8791;SDS011;4432;50.890;4.744;2022-11-18T07:37:01;4.33;;;1.40;;
8791;SDS011;4432;50.890;4.744;2022-11-18T07:39:27;2.23;;;1.50;;
8791;SDS011;4432;50.890;4.744;2022-11-18T07:41:52;4.07;;;1.67;;
8791;SDS011;4432;50.890;4.744;2022-11-18T07:44:18;2.43;;;1.50;;
8791;SDS011;4432;50.890;4.744;2022-11-18T07:46:44;1.77;;;1.60;;
8791;SDS011;4432;50.890;4.744;2022-11-18T07:49:10;5.20;;;1.40;;
8791;SDS011;4432;50.890;4.744;2022-11-18T07:51:36;4.00;;;1.73;;
8791;SDS011;4432;50.890;4.744;2022-11-18T07:54:07;8.80;;;1.87;;
8791;SDS011;4432;50.890;4.744;2022-11-18T07:56:35;3.47;;;1.53;;
8791;SDS011;4432;50.890;4.744;2022-11-18T07:59:01;5.37;;;2.03;;
8791;SDS011;4432;50.890;4.744;2022-11-18T08:01:27;3.63;;;1.50;;
8791;SDS011;4432;50.890;4.744;2022-11-18T08:03:53;6.53;;;2.17;;
8791;SDS011;4432;50.890;4.744;2022-11-18T08:06:19;6.90;;;1.97;;
8791;SDS011;4432;50.890;4.744;2022-11-18T08:08:45;6.07;;;1.80;;
8791;SDS011;4432;50.890;4.744;2022-11-18T08:11:17;3.63;;;1.90;;
8791;SDS011;4432;50.890;4.744;2022-11-18T08:13:43;6.73;;;1.90;;
8791;SDS011;4432;50.890;4.744;2022-11-18T08:16:13;3.43;;;1.60;;
8791;SDS011;4432;50.890;4.744;2022-11-18T08:18:40;1.80;;;1.30;;
8791;SDS011;4432;50.890;4.744;2022-11-18T08:21:06;3.53;;;1.97;;
8791;SDS011;4432;50.890;4.744;2022-11-18T08:23:32;1.60;;;1.50;;
8791;SDS011;4432;50.890;4.744;2022-11-18T08:26:02;4.00;;;2.00;;
8791;SDS011;4432;50.890;4.744;2022-11-18T08:28:33;2.73;;;1.37;;
8791;SDS011;4432;50.890;4.744;2022-11-18T08:30:59;3.67;;;1.73;;
8791;SDS011;4432;50.890;4.744;2022-11-18T08:33:32;2.17;;;1.83;;
8791;SDS011;4432;50.890;4.744;2022-11-18T08:35:58;5.23;;;2.03;;
8791;SDS011;4432;50.890;4.744;2022-11-18T08:38:30;3.67;;;1.77;;
8791;SDS011;4432;50.890;4.744;2022-11-18T08:40:56;1.70;;;1.50;;
8791;SDS011;4432;50.890;4.744;2022-11-18T08:43:22;4.17;;;1.50;;
8791;SDS011;4432;50.890;4.744;2022-11-18T08:45:48;2.20;;;1.70;;
8791;SDS011;4432;50.890;4.744;2022-11-18T08:48:14;1.87;;;1.60;;
8791;SDS011;4432;50.890;4.744;2022-11-18T08:50:39;3.67;;;1.80;;
8791;SDS011;4432;50.890;4.744;2022-11-18T08:53:05;3.83;;;1.67;;
8791;SDS011;4432;50.890;4.744;2022-11-18T08:55:30;7.67;;;1.60;;
8791;SDS011;4432;50.890;4.744;2022-11-18T08:57:56;9.87;;;2.23;;
8791;SDS011;4432;50.890;4.744;2022-11-18T09:00:22;3.80;;;1.80;;
8791;SDS011;4432;50.890;4.744;2022-11-18T09:02:48;5.27;;;1.73;;
8791;SDS011;4432;50.890;4.744;2022-11-18T09:05:14;5.80;;;1.77;;
8791;SDS011;4432;50.890;4.744;2022-11-18T09:07:39;4.60;;;1.50;;
8791;SDS011;4432;50.890;4.744;2022-11-18T09:10:05;1.60;;;1.50;;
8791;SDS011;4432;50.890;4.744;2022-11-18T09:12:31;3.67;;;1.90;;
8791;SDS011;4432;50.890;4.744;2022-11-18T09:14:57;6.10;;;2.20;;
8791;SDS011;4432;50.890;4.744;2022-11-18T09:17:23;2.87;;;2.13;;
8791;SDS011;4432;50.890;4.744;2022-11-18T09:19:48;2.20;;;1.87;;
8791;SDS011;4432;50.890;4.744;2022-11-18T09:22:14;3.23;;;1.70;;
8791;SDS011;4432;50.890;4.744;2022-11-18T09:24:40;1.53;;;1.43;;
8791;SDS011;4432;50.890;4.744;2022-11-18T09:27:07;5.50;;;2.17;;
8791;SDS011;4432;50.890;4.744;2022-11-18T09:29:33;4.93;;;1.63;;
8791;SDS011;4432;50.890;4.744;2022-11-18T09:31:59;6.57;;;1.67;;
8791;SDS011;4432;50.890;4.744;2022-11-18T09:34:26;4.63;;;1.93;;
8791;SDS011;4432;50.890;4.744;2022-11-18T09:36:52;6.60;;;1.80;;
8791;SDS011;4432;50.890;4.744;2022-11-18T09:39:21;4.40;;;1.83;;
8791;SDS011;4432;50.890;4.744;2022-11-18T09:42:11;2.53;;;1.57;;
8791;SDS011;4432;50.890;4.744;2022-11-18T09:44:50;9.27;;;1.93;;
8791;SDS011;4432;50.890;4.744;2022-11-18T09:47:32;3.27;;;1.57;;
8791;SDS011;4432;50.890;4.744;2022-11-18T09:50:03;3.50;;;1.90;;
8791;SDS011;4432;50.890;4.744;2022-11-18T09:52:49;1.60;;;1.40;;
8791;SDS011;4432;50.890;4.744;2022-11-18T09:55:19;7.23;;;1.70;;
8791;SDS011;4432;50.890;4.744;2022-11-18T09:57:53;5.97;;;1.80;;
8791;SDS011;4432;50.890;4.744;2022-11-18T10:00:26;2.00;;;1.47;;
8791;SDS011;4432;50.890;4.744;2022-11-18T10:10:53;1.27;;;1.13;;
8791;SDS011;4432;50.890;4.744;2022-11-18T10:16:54;4.57;;;2.00;;
8791;SDS011;4432;50.890;4.744;2022-11-18T10:19:45;2.97;;;1.97;;
8791;SDS011;4432;50.890;4.744;2022-11-18T10:22:27;4.77;;;1.70;;
8791;SDS011;4432;50.890;4.744;2022-11-18T10:24:58;6.33;;;1.50;;
8791;SDS011;4432;50.890;4.744;2022-11-18T10:27:26;1.60;;;1.10;;
8791;SDS011;4432;50.890;4.744;2022-11-18T10:30:01;5.43;;;1.20;;
8791;SDS011;4432;50.890;4.744;2022-11-18T10:32:51;2.70;;;1.20;;
8791;SDS011;4432;50.890;4.744;2022-11-18T10:35:32;7.17;;;1.30;;
8791;SDS011;4432;50.890;4.744;2022-11-18T10:49:10;3.13;;;1.40;;
8791;SDS011;4432;50.890;4.744;2022-11-18T10:54:32;2.30;;;1.10;;
8791;SDS011;4432;50.890;4.744;2022-11-18T10:59:46;3.83;;;1.53;;
8791;SDS011;4432;50.890;4.744;2022-11-18T11:04:56;1.30;;;1.10;;
8791;SDS011;4432;50.890;4.744;2022-11-18T11:12:31;5.43;;;1.33;;
8791;SDS011;4432;50.890;4.744;2022-11-18T11:15:01;4.87;;;1.47;;
8791;SDS011;4432;50.890;4.744;2022-11-18T11:17:36;3.90;;;1.70;;
8791;SDS011;4432;50.890;4.744;2022-11-18T11:22:42;4.33;;;1.60;;
8791;SDS011;4432;50.890;4.744;2022-11-18T11:25:15;3.27;;;1.30;;
8791;SDS011;4432;50.890;4.744;2022-11-18T11:30:21;1.30;;;1.20;;
8791;SDS011;4432;50.890;4.744;2022-11-18T11:35:26;4.67;;;1.40;;
8791;SDS011;4432;50.890;4.744;2022-11-18T11:37:59;2.73;;;1.80;;
8791;SDS011;4432;50.890;4.744;2022-11-18T11:46:11;2.00;;;1.30;;
8791;SDS011;4432;50.890;4.744;2022-11-18T11:56:54;2.23;;;1.30;;
8791;SDS011;4432;50.890;4.744;2022-11-18T11:59:27;2.07;;;1.10;;
8791;SDS011;4432;50.890;4.744;2022-11-18T12:04:54;1.63;;;1.20;;
8791;SDS011;4432;50.890;4.744;2022-11-18T12:07:28;0.93;;;0.83;;
8791;SDS011;4432;50.890;4.744;2022-11-18T12:13:02;1.37;;;1.27;;
8791;SDS011;4432;50.890;4.744;2022-11-18T12:18:33;2.53;;;1.17;;
8791;SDS011;4432;50.890;4.744;2022-11-18T12:24:31;2.57;;;1.20;;
8791;SDS011;4432;50.890;4.744;2022-11-18T12:29:25;1.87;;;1.00;;
8791;SDS011;4432;50.890;4.744;2022-11-18T12:31:58;3.50;;;1.43;;
8791;SDS011;4432;50.890;4.744;2022-11-18T12:50:52;4.00;;;1.20;;
8791;SDS011;4432;50.890;4.744;2022-11-18T12:53:34;5.10;;;1.17;;
8791;SDS011;4432;50.890;4.744;2022-11-18T12:56:11;1.43;;;1.20;;
8791;SDS011;4432;50.890;4.744;2022-11-18T12:58:53;2.43;;;1.20;;
8791;SDS011;4432;50.890;4.744;2022-11-18T13:01:30;2.93;;;1.40;;
8791;SDS011;4432;50.890;4.744;2022-11-18T13:06:36;3.87;;;1.43;;
8791;SDS011;4432;50.890;4.744;2022-11-18T13:09:03;1.20;;;1.10;;
8791;SDS011;4432;50.890;4.744;2022-11-18T13:11:46;2.60;;;1.03;;
8791;SDS011;4432;50.890;4.744;2022-11-18T13:14:17;4.77;;;1.33;;
8791;SDS011;4432;50.890;4.744;2022-11-18T13:20:18;1.50;;;0.90;;
8791;SDS011;4432;50.890;4.744;2022-11-18T13:22:57;1.60;;;1.20;;
8791;SDS011;4432;50.890;4.744;2022-11-18T13:25:45;3.50;;;1.30;;
8791;SDS011;4432;50.890;4.744;2022-11-18T13:30:50;2.83;;;1.07;;
8791;SDS011;4432;50.890;4.744;2022-11-18T13:33:26;1.13;;;1.10;;
8791;SDS011;4432;50.890;4.744;2022-11-18T13:35:52;1.10;;;1.00;;
8791;SDS011;4432;50.890;4.744;2022-11-18T13:38:19;4.37;;;1.20;;
8791;SDS011;4432;50.890;4.744;2022-11-18T13:40:48;1.37;;;1.20;;
8791;SDS011;4432;50.890;4.744;2022-11-18T13:43:33;3.10;;;1.23;;
8791;SDS011;4432;50.890;4.744;2022-11-18T13:45:59;1.40;;;1.30;;
8791;SDS011;4432;50.890;4.744;2022-11-18T13:48:28;2.37;;;1.23;;
8791;SDS011;4432;50.890;4.744;2022-11-18T13:50:56;2.83;;;1.50;;
8791;SDS011;4432;50.890;4.744;2022-11-18T13:53:29;3.93;;;1.77;;
8791;SDS011;4432;50.890;4.744;2022-11-18T13:55:58;2.97;;;1.27;;
8791;SDS011;4432;50.890;4.744;2022-11-18T13:58:36;2.20;;;1.40;;
8791;SDS011;4432;50.890;4.744;2022-11-18T14:01:21;3.03;;;1.33;;
8791;SDS011;4432;50.890;4.744;2022-11-18T14:04:00;3.67;;;1.30;;
8791;SDS011;4432;50.890;4.744;2022-11-18T14:11:43;1.10;;;1.10;;
8791;SDS011;4432;50.890;4.744;2022-11-18T14:14:37;2.77;;;1.37;;
8791;SDS011;4432;50.890;4.744;2022-11-18T14:19:39;4.07;;;1.67;;
8791;SDS011;4432;50.890;4.744;2022-11-18T14:22:09;7.43;;;1.40;;
8791;SDS011;4432;50.890;4.744;2022-11-18T14:24:39;2.30;;;1.23;;
8791;SDS011;4432;50.890;4.744;2022-11-18T14:35:47;2.27;;;1.60;;
8791;SDS011;4432;50.890;4.744;2022-11-18T14:38:21;3.43;;;1.93;;
8791;SDS011;4432;50.890;4.744;2022-11-18T14:40:58;3.03;;;2.17;;
8791;SDS011;4432;50.890;4.744;2022-11-18T14:43:27;7.53;;;1.80;;
8791;SDS011;4432;50.890;4.744;2022-11-18T14:45:54;3.90;;;1.70;;
8791;SDS011;4432;50.890;4.744;2022-11-18T14:48:26;5.67;;;1.50;;
8791;SDS011;4432;50.890;4.744;2022-11-18T14:50:54;3.20;;;1.60;;
8791;SDS011;4432;50.890;4.744;2022-11-18T14:53:20;1.93;;;1.70;;
8791;SDS011;4432;50.890;4.744;2022-11-18T14:55:47;3.57;;;1.63;;
8791;SDS011;4432;50.890;4.744;2022-11-18T14:58:15;1.37;;;1.27;;
8791;SDS011;4432;50.890;4.744;2022-11-18T15:00:42;2.30;;;1.80;;
8791;SDS011;4432;50.890;4.744;2022-11-18T15:03:09;3.73;;;1.70;;
8791;SDS011;4432;50.890;4.744;2022-11-18T15:05:35;2.63;;;1.63;;
8791;SDS011;4432;50.890;4.744;2022-11-18T15:08:00;5.40;;;1.70;;
8791;SDS011;4432;50.890;4.744;2022-11-18T15:10:27;2.53;;;1.83;;
8791;SDS011;4432;50.890;4.744;2022-11-18T15:12:52;1.97;;;1.80;;
8791;SDS011;4432;50.890;4.744;2022-11-18T15:15:18;3.03;;;1.87;;
8791;SDS011;4432;50.890;4.744;2022-11-18T15:17:44;5.43;;;1.90;;
8791;SDS011;4432;50.890;4.744;2022-11-18T15:20:11;5.87;;;1.87;;
8791;SDS011;4432;50.890;4.744;2022-11-18T15:22:39;4.80;;;1.53;;
8791;SDS011;4432;50.890;4.744;2022-11-18T15:25:05;2.97;;;1.60;;
8791;SDS011;4432;50.890;4.744;2022-11-18T15:27:32;5.03;;;1.77;;
8791;SDS011;4432;50.890;4.744;2022-11-18T15:29:58;3.40;;;1.37;;
8791;SDS011;4432;50.890;4.744;2022-11-18T15:32:24;2.67;;;1.60;;
8791;SDS011;4432;50.890;4.744;2022-11-18T15:34:57;3.33;;;1.30;;
8791;SDS011;4432;50.890;4.744;2022-11-18T15:37:23;1.30;;;1.20;;
8791;SDS011;4432;50.890;4.744;2022-11-18T15:39:48;2.47;;;1.60;;
8791;SDS011;4432;50.890;4.744;2022-11-18T15:42:16;5.33;;;1.50;;
8791;SDS011;4432;50.890;4.744;2022-11-18T15:44:42;5.27;;;2.03;;
8791;SDS011;4432;50.890;4.744;2022-11-18T15:47:11;4.50;;;1.40;;
8791;SDS011;4432;50.890;4.744;2022-11-18T15:49:37;3.63;;;1.77;;
8791;SDS011;4432;50.890;4.744;2022-11-18T15:52:08;3.63;;;1.70;;
8791;SDS011;4432;50.890;4.744;2022-11-18T15:54:37;5.73;;;1.80;;
8791;SDS011;4432;50.890;4.744;2022-11-18T15:57:03;3.57;;;1.67;;
8791;SDS011;4432;50.890;4.744;2022-11-18T15:59:29;3.37;;;1.90;;
8791;SDS011;4432;50.890;4.744;2022-11-18T16:01:55;3.33;;;2.10;;
8791;SDS011;4432;50.890;4.744;2022-11-18T16:04:21;6.20;;;1.83;;
8791;SDS011;4432;50.890;4.744;2022-11-18T16:06:47;3.93;;;2.10;;
8791;SDS011;4432;50.890;4.744;2022-11-18T16:09:14;2.10;;;1.87;;
8791;SDS011;4432;50.890;4.744;2022-11-18T16:11:40;4.40;;;1.93;;
8791;SDS011;4432;50.890;4.744;2022-11-18T16:14:25;3.20;;;2.33;;
8791;SDS011;4432;50.890;4.744;2022-11-18T16:16:52;3.30;;;2.03;;
8791;SDS011;4432;50.890;4.744;2022-11-18T16:19:21;6.60;;;2.33;;
8791;SDS011;4432;50.890;4.744;2022-11-18T16:21:49;6.77;;;2.43;;
8791;SDS011;4432;50.890;4.744;2022-11-18T16:24:18;5.30;;;2.13;;
8791;SDS011;4432;50.890;4.744;2022-11-18T16:26:46;4.67;;;2.37;;
8791;SDS011;4432;50.890;4.744;2022-11-18T16:29:12;3.37;;;1.93;;
8791;SDS011;4432;50.890;4.744;2022-11-18T16:31:39;6.20;;;2.70;;
8791;SDS011;4432;50.890;4.744;2022-11-18T16:34:12;4.97;;;3.07;;
8791;SDS011;4432;50.890;4.744;2022-11-18T16:36:40;5.53;;;3.07;;
8791;SDS011;4432;50.890;4.744;2022-11-18T16:39:11;6.53;;;3.47;;
8791;SDS011;4432;50.890;4.744;2022-11-18T16:41:39;7.87;;;5.33;;
8791;SDS011;4432;50.890;4.744;2022-11-18T16:44:09;8.77;;;5.03;;
8791;SDS011;4432;50.890;4.744;2022-11-18T16:46:38;3.30;;;3.00;;
8791;SDS011;4432;50.890;4.744;2022-11-18T16:49:05;5.70;;;3.10;;
8791;SDS011;4432;50.890;4.744;2022-11-18T16:51:34;7.13;;;2.97;;
8791;SDS011;4432;50.890;4.744;2022-11-18T16:54:02;5.90;;;2.87;;
8791;SDS011;4432;50.890;4.744;2022-11-18T16:56:30;4.00;;;2.90;;
8791;SDS011;4432;50.890;4.744;2022-11-18T16:58:59;10.40;;;3.37;;
8791;SDS011;4432;50.890;4.744;2022-11-18T17:01:27;2.67;;;2.47;;
8791;SDS011;4432;50.890;4.744;2022-11-18T17:03:53;3.63;;;3.03;;
8791;SDS011;4432;50.890;4.744;2022-11-18T17:06:20;7.83;;;2.70;;
8791;SDS011;4432;50.890;4.744;2022-11-18T17:08:47;6.03;;;3.17;;
8791;SDS011;4432;50.890;4.744;2022-11-18T17:11:13;5.27;;;2.60;;
8791;SDS011;4432;50.890;4.744;2022-11-18T17:13:40;3.00;;;2.70;;
8791;SDS011;4432;50.890;4.744;2022-11-18T17:16:24;3.77;;;2.80;;
8791;SDS011;4432;50.890;4.744;2022-11-18T17:18:54;2.37;;;2.00;;
8791;SDS011;4432;50.890;4.744;2022-11-18T17:21:22;2.77;;;1.97;;
8791;SDS011;4432;50.890;4.744;2022-11-18T17:23:48;2.57;;;2.37;;
8791;SDS011;4432;50.890;4.744;2022-11-18T17:26:15;2.80;;;2.10;;
8791;SDS011;4432;50.890;4.744;2022-11-18T17:28:43;3.73;;;2.40;;
8791;SDS011;4432;50.890;4.744;2022-11-18T17:31:13;3.47;;;2.83;;
8791;SDS011;4432;50.890;4.744;2022-11-18T17:33:41;4.77;;;2.07;;
8791;SDS011;4432;50.890;4.744;2022-11-18T17:36:08;1.70;;;1.60;;
8791;SDS011;4432;50.890;4.744;2022-11-18T17:38:36;3.27;;;2.47;;
8791;SDS011;4432;50.890;4.744;2022-11-18T17:41:06;4.07;;;2.73;;
8791;SDS011;4432;50.890;4.744;2022-11-18T17:43:33;7.00;;;3.23;;
8791;SDS011;4432;50.890;4.744;2022-11-18T17:45:59;5.57;;;2.60;;